sensor_id;sensor_type;location;lat;lon;timestamp;P1;durP1;ratioP1;P2;durP2;ratioP2
10144;SDS011;5113;41.822;23.564;2023-12-20T00:02:51;35.40;;;17.80;;
10144;SDS011;5113;41.822;23.564;2023-12-20T00:06:00;39.50;;;18.07;;
10144;SDS011;5113;41.822;23.564;2023-12-20T00:09:07;46.90;;;20.70;;
10144;SDS011;5113;41.822;23.564;2023-12-20T00:12:14;34.43;;;17.27;;
10144;SDS011;5113;41.822;23.564;2023-12-20T00:15:20;34.33;;;17.17;;
10144;SDS011;5113;41.822;23.564;2023-12-20T00:18:27;40.77;;;18.07;;
10144;SDS011;5113;41.822;23.564;2023-12-20T00:21:38;37.40;;;19.27;;
10144;SDS011;5113;41.822;23.564;2023-12-20T00:24:44;49.10;;;29.27;;
10144;SDS011;5113;41.822;23.564;2023-12-20T00:27:51;44.00;;;23.70;;
10144;SDS011;5113;41.822;23.564;2023-12-20T00:30:58;55.07;;;26.30;;
10144;SDS011;5113;41.822;23.564;2023-12-20T00:34:05;64.73;;;23.97;;
10144;SDS011;5113;41.822;23.564;2023-12-20T00:37:13;46.00;;;20.73;;
10144;SDS011;5113;41.822;23.564;2023-12-20T00:40:21;42.43;;;19.70;;
10144;SDS011;5113;41.822;23.564;2023-12-20T00:43:27;46.73;;;21.30;;
10144;SDS011;5113;41.822;23.564;2023-12-20T00:46:34;52.13;;;32.40;;
10144;SDS011;5113;41.822;23.564;2023-12-20T00:49:40;52.50;;;21.47;;
10144;SDS011;5113;41.822;23.564;2023-12-20T00:52:48;39.50;;;21.67;;
10144;SDS011;5113;41.822;23.564;2023-12-20T00:55:55;43.67;;;20.90;;
10144;SDS011;5113;41.822;23.564;2023-12-20T00:59:03;49.10;;;19.87;;
10144;SDS011;5113;41.822;23.564;2023-12-20T01:02:09;36.10;;;20.17;;
10144;SDS011;5113;41.822;23.564;2023-12-20T01:05:16;41.50;;;20.60;;
10144;SDS011;5113;41.822;23.564;2023-12-20T01:08:26;51.07;;;22.40;;
10144;SDS011;5113;41.822;23.564;2023-12-20T01:11:32;72.67;;;29.43;;
10144;SDS011;5113;41.822;23.564;2023-12-20T01:14:39;66.13;;;26.83;;
10144;SDS011;5113;41.822;23.564;2023-12-20T01:17:46;78.97;;;27.63;;
10144;SDS011;5113;41.822;23.564;2023-12-20T01:20:54;51.37;;;27.17;;
10144;SDS011;5113;41.822;23.564;2023-12-20T01:24:03;57.07;;;26.33;;
10144;SDS011;5113;41.822;23.564;2023-12-20T01:27:09;76.90;;;29.83;;
10144;SDS011;5113;41.822;23.564;2023-12-20T01:30:16;91.80;;;35.57;;
10144;SDS011;5113;41.822;23.564;2023-12-20T01:33:23;52.30;;;22.87;;
10144;SDS011;5113;41.822;23.564;2023-12-20T01:36:30;73.87;;;30.80;;
10144;SDS011;5113;41.822;23.564;2023-12-20T01:39:38;62.80;;;26.50;;
10144;SDS011;5113;41.822;23.564;2023-12-20T01:42:45;51.07;;;24.87;;
10144;SDS011;5113;41.822;23.564;2023-12-20T01:45:52;71.50;;;25.37;;
10144;SDS011;5113;41.822;23.564;2023-12-20T01:49:00;76.77;;;27.50;;
10144;SDS011;5113;41.822;23.564;2023-12-20T01:52:07;68.87;;;32.40;;
10144;SDS011;5113;41.822;23.564;2023-12-20T01:55:18;59.73;;;26.43;;
10144;SDS011;5113;41.822;23.564;2023-12-20T01:58:25;59.97;;;26.70;;
10144;SDS011;5113;41.822;23.564;2023-12-20T02:01:32;69.43;;;28.53;;
10144;SDS011;5113;41.822;23.564;2023-12-20T02:04:40;39.87;;;19.43;;
10144;SDS011;5113;41.822;23.564;2023-12-20T02:07:48;41.37;;;21.17;;
10144;SDS011;5113;41.822;23.564;2023-12-20T02:10:56;46.97;;;25.63;;
10144;SDS011;5113;41.822;23.564;2023-12-20T02:14:04;51.57;;;19.47;;
10144;SDS011;5113;41.822;23.564;2023-12-20T02:17:10;30.70;;;16.53;;
10144;SDS011;5113;41.822;23.564;2023-12-20T02:20:17;38.60;;;17.63;;
10144;SDS011;5113;41.822;23.564;2023-12-20T02:23:25;38.40;;;17.70;;
10144;SDS011;5113;41.822;23.564;2023-12-20T02:26:31;30.73;;;16.70;;
10144;SDS011;5113;41.822;23.564;2023-12-20T02:29:39;28.50;;;14.03;;
10144;SDS011;5113;41.822;23.564;2023-12-20T02:32:46;27.20;;;11.87;;
10144;SDS011;5113;41.822;23.564;2023-12-20T02:35:54;41.87;;;18.17;;
10144;SDS011;5113;41.822;23.564;2023-12-20T02:39:02;49.87;;;18.60;;
10144;SDS011;5113;41.822;23.564;2023-12-20T02:42:09;30.77;;;16.93;;
10144;SDS011;5113;41.822;23.564;2023-12-20T02:45:15;15.40;;;10.57;;
10144;SDS011;5113;41.822;23.564;2023-12-20T02:48:22;28.73;;;15.60;;
10144;SDS011;5113;41.822;23.564;2023-12-20T02:51:29;22.87;;;12.37;;
10144;SDS011;5113;41.822;23.564;2023-12-20T02:54:37;26.97;;;14.60;;
10144;SDS011;5113;41.822;23.564;2023-12-20T02:57:44;19.20;;;13.20;;
10144;SDS011;5113;41.822;23.564;2023-12-20T03:00:51;29.97;;;14.87;;
10144;SDS011;5113;41.822;23.564;2023-12-20T03:03:58;25.77;;;13.77;;
10144;SDS011;5113;41.822;23.564;2023-12-20T03:07:05;39.60;;;16.13;;
10144;SDS011;5113;41.822;23.564;2023-12-20T03:10:13;38.63;;;20.40;;
10144;SDS011;5113;41.822;23.564;2023-12-20T03:13:30;46.53;;;22.73;;
10144;SDS011;5113;41.822;23.564;2023-12-20T03:16:36;31.23;;;15.63;;
10144;SDS011;5113;41.822;23.564;2023-12-20T03:19:43;30.93;;;14.97;;
10144;SDS011;5113;41.822;23.564;2023-12-20T03:22:49;38.20;;;14.33;;
10144;SDS011;5113;41.822;23.564;2023-12-20T03:25:57;26.23;;;12.97;;
10144;SDS011;5113;41.822;23.564;2023-12-20T03:29:04;32.33;;;15.33;;
10144;SDS011;5113;41.822;23.564;2023-12-20T03:32:11;24.50;;;14.73;;
10144;SDS011;5113;41.822;23.564;2023-12-20T03:35:18;24.83;;;16.00;;
10144;SDS011;5113;41.822;23.564;2023-12-20T03:38:24;27.83;;;13.50;;
10144;SDS011;5113;41.822;23.564;2023-12-20T03:41:32;27.00;;;15.50;;
10144;SDS011;5113;41.822;23.564;2023-12-20T03:44:39;34.07;;;17.70;;
10144;SDS011;5113;41.822;23.564;2023-12-20T03:47:45;53.30;;;19.77;;
10144;SDS011;5113;41.822;23.564;2023-12-20T03:50:53;38.40;;;16.43;;
10144;SDS011;5113;41.822;23.564;2023-12-20T03:53:59;48.33;;;21.47;;
10144;SDS011;5113;41.822;23.564;2023-12-20T03:57:07;29.87;;;16.33;;
10144;SDS011;5113;41.822;23.564;2023-12-20T04:00:14;22.23;;;13.13;;
10144;SDS011;5113;41.822;23.564;2023-12-20T04:03:22;32.70;;;17.70;;
10144;SDS011;5113;41.822;23.564;2023-12-20T04:06:28;33.23;;;17.13;;
10144;SDS011;5113;41.822;23.564;2023-12-20T04:09:36;40.67;;;20.07;;
10144;SDS011;5113;41.822;23.564;2023-12-20T04:12:44;31.30;;;16.57;;
10144;SDS011;5113;41.822;23.564;2023-12-20T04:15:50;41.80;;;26.57;;
10144;SDS011;5113;41.822;23.564;2023-12-20T04:18:57;52.57;;;26.50;;
10144;SDS011;5113;41.822;23.564;2023-12-20T04:22:05;74.27;;;41.37;;
10144;SDS011;5113;41.822;23.564;2023-12-20T04:25:12;58.00;;;29.13;;
10144;SDS011;5113;41.822;23.564;2023-12-20T04:28:20;45.20;;;23.87;;
10144;SDS011;5113;41.822;23.564;2023-12-20T04:31:27;56.40;;;23.57;;
10144;SDS011;5113;41.822;23.564;2023-12-20T04:34:34;51.67;;;26.47;;
10144;SDS011;5113;41.822;23.564;2023-12-20T04:37:40;37.70;;;20.40;;
10144;SDS011;5113;41.822;23.564;2023-12-20T04:40:48;56.93;;;28.20;;
10144;SDS011;5113;41.822;23.564;2023-12-20T04:43:56;53.33;;;24.63;;
10144;SDS011;5113;41.822;23.564;2023-12-20T04:47:03;58.87;;;23.30;;
10144;SDS011;5113;41.822;23.564;2023-12-20T04:50:10;55.73;;;27.57;;
10144;SDS011;5113;41.822;23.564;2023-12-20T04:53:18;42.00;;;20.80;;
10144;SDS011;5113;41.822;23.564;2023-12-20T04:56:25;81.00;;;34.50;;
10144;SDS011;5113;41.822;23.564;2023-12-20T04:59:33;47.00;;;23.30;;
10144;SDS011;5113;41.822;23.564;2023-12-20T05:02:40;51.27;;;22.07;;
10144;SDS011;5113;41.822;23.564;2023-12-20T05:05:47;35.47;;;20.30;;
10144;SDS011;5113;41.822;23.564;2023-12-20T05:08:54;56.17;;;36.37;;
10144;SDS011;5113;41.822;23.564;2023-12-20T05:12:00;69.10;;;28.20;;
10144;SDS011;5113;41.822;23.564;2023-12-20T05:15:09;56.17;;;28.83;;
10144;SDS011;5113;41.822;23.564;2023-12-20T05:18:15;50.83;;;28.80;;
10144;SDS011;5113;41.822;23.564;2023-12-20T05:21:22;65.30;;;27.33;;
10144;SDS011;5113;41.822;23.564;2023-12-20T05:24:29;52.10;;;27.80;;
10144;SDS011;5113;41.822;23.564;2023-12-20T05:27:35;58.20;;;31.73;;
10144;SDS011;5113;41.822;23.564;2023-12-20T05:30:43;60.03;;;35.37;;
10144;SDS011;5113;41.822;23.564;2023-12-20T05:33:50;68.70;;;29.07;;
10144;SDS011;5113;41.822;23.564;2023-12-20T05:36:57;75.63;;;34.40;;
10144;SDS011;5113;41.822;23.564;2023-12-20T05:40:05;62.17;;;28.83;;
10144;SDS011;5113;41.822;23.564;2023-12-20T05:43:14;86.60;;;34.83;;
10144;SDS011;5113;41.822;23.564;2023-12-20T05:46:23;209.10;;;86.40;;
10144;SDS011;5113;41.822;23.564;2023-12-20T05:49:29;127.30;;;48.83;;
10144;SDS011;5113;41.822;23.564;2023-12-20T05:52:36;86.83;;;38.53;;
10144;SDS011;5113;41.822;23.564;2023-12-20T05:55:42;105.87;;;47.07;;
10144;SDS011;5113;41.822;23.564;2023-12-20T05:58:49;98.33;;;42.83;;
10144;SDS011;5113;41.822;23.564;2023-12-20T06:01:56;81.93;;;39.70;;
10144;SDS011;5113;41.822;23.564;2023-12-20T06:05:04;73.33;;;38.00;;
10144;SDS011;5113;41.822;23.564;2023-12-20T06:08:11;89.47;;;39.77;;
10144;SDS011;5113;41.822;23.564;2023-12-20T06:11:18;81.97;;;39.63;;
10144;SDS011;5113;41.822;23.564;2023-12-20T06:14:24;90.17;;;41.47;;
10144;SDS011;5113;41.822;23.564;2023-12-20T06:17:32;81.87;;;43.83;;
10144;SDS011;5113;41.822;23.564;2023-12-20T06:20:39;81.97;;;35.93;;
10144;SDS011;5113;41.822;23.564;2023-12-20T06:23:46;107.43;;;41.97;;
10144;SDS011;5113;41.822;23.564;2023-12-20T06:26:53;77.90;;;34.40;;
10144;SDS011;5113;41.822;23.564;2023-12-20T06:30:00;78.33;;;34.33;;
10144;SDS011;5113;41.822;23.564;2023-12-20T06:33:08;74.97;;;32.43;;
10144;SDS011;5113;41.822;23.564;2023-12-20T06:36:16;84.60;;;33.63;;
10144;SDS011;5113;41.822;23.564;2023-12-20T06:39:22;96.17;;;41.27;;
10144;SDS011;5113;41.822;23.564;2023-12-20T06:42:29;72.27;;;33.43;;
10144;SDS011;5113;41.822;23.564;2023-12-20T06:45:43;66.70;;;28.23;;
10144;SDS011;5113;41.822;23.564;2023-12-20T06:48:52;106.33;;;46.07;;
10144;SDS011;5113;41.822;23.564;2023-12-20T06:51:58;91.87;;;40.10;;
10144;SDS011;5113;41.822;23.564;2023-12-20T06:55:05;83.43;;;35.67;;
10144;SDS011;5113;41.822;23.564;2023-12-20T06:58:12;51.53;;;26.27;;
10144;SDS011;5113;41.822;23.564;2023-12-20T07:01:19;58.20;;;27.47;;
10144;SDS011;5113;41.822;23.564;2023-12-20T07:04:27;54.87;;;23.90;;
10144;SDS011;5113;41.822;23.564;2023-12-20T07:07:34;56.97;;;29.10;;
10144;SDS011;5113;41.822;23.564;2023-12-20T07:10:41;59.73;;;30.23;;
10144;SDS011;5113;41.822;23.564;2023-12-20T07:13:48;44.73;;;22.10;;
10144;SDS011;5113;41.822;23.564;2023-12-20T07:17:09;53.60;;;25.27;;
10144;SDS011;5113;41.822;23.564;2023-12-20T07:20:19;61.80;;;31.50;;
10144;SDS011;5113;41.822;23.564;2023-12-20T07:23:25;104.27;;;47.33;;
10144;SDS011;5113;41.822;23.564;2023-12-20T07:26:32;69.07;;;31.50;;
10144;SDS011;5113;41.822;23.564;2023-12-20T07:29:39;69.17;;;29.07;;
10144;SDS011;5113;41.822;23.564;2023-12-20T07:32:46;107.20;;;38.83;;
10144;SDS011;5113;41.822;23.564;2023-12-20T07:35:54;95.60;;;36.90;;
10144;SDS011;5113;41.822;23.564;2023-12-20T07:39:01;98.57;;;36.60;;
10144;SDS011;5113;41.822;23.564;2023-12-20T07:42:07;88.57;;;35.53;;
10144;SDS011;5113;41.822;23.564;2023-12-20T07:45:14;115.33;;;43.73;;
10144;SDS011;5113;41.822;23.564;2023-12-20T07:48:21;79.70;;;34.90;;
10144;SDS011;5113;41.822;23.564;2023-12-20T07:51:30;63.73;;;32.80;;
10144;SDS011;5113;41.822;23.564;2023-12-20T07:54:36;67.40;;;31.70;;
10144;SDS011;5113;41.822;23.564;2023-12-20T07:57:43;61.57;;;27.70;;
10144;SDS011;5113;41.822;23.564;2023-12-20T08:00:50;153.83;;;64.13;;
10144;SDS011;5113;41.822;23.564;2023-12-20T08:03:57;70.70;;;33.17;;
10144;SDS011;5113;41.822;23.564;2023-12-20T08:07:05;84.00;;;35.67;;
10144;SDS011;5113;41.822;23.564;2023-12-20T08:10:12;59.37;;;30.20;;
10144;SDS011;5113;41.822;23.564;2023-12-20T08:13:19;48.93;;;26.90;;
10144;SDS011;5113;41.822;23.564;2023-12-20T08:16:29;78.17;;;32.27;;
10144;SDS011;5113;41.822;23.564;2023-12-20T08:19:36;61.43;;;32.43;;
10144;SDS011;5113;41.822;23.564;2023-12-20T08:22:44;57.67;;;28.47;;
10144;SDS011;5113;41.822;23.564;2023-12-20T08:25:50;53.63;;;24.40;;
10144;SDS011;5113;41.822;23.564;2023-12-20T08:28:57;57.60;;;28.43;;
10144;SDS011;5113;41.822;23.564;2023-12-20T08:32:06;51.67;;;25.07;;
10144;SDS011;5113;41.822;23.564;2023-12-20T08:35:12;50.03;;;26.50;;
10144;SDS011;5113;41.822;23.564;2023-12-20T08:38:20;48.80;;;27.07;;
10144;SDS011;5113;41.822;23.564;2023-12-20T08:41:27;56.73;;;30.40;;
10144;SDS011;5113;41.822;23.564;2023-12-20T08:44:33;69.43;;;34.27;;
10144;SDS011;5113;41.822;23.564;2023-12-20T08:47:40;76.53;;;36.47;;
10144;SDS011;5113;41.822;23.564;2023-12-20T08:50:49;78.63;;;36.93;;
10144;SDS011;5113;41.822;23.564;2023-12-20T08:53:58;91.67;;;44.37;;
10144;SDS011;5113;41.822;23.564;2023-12-20T08:57:05;103.27;;;46.77;;
10144;SDS011;5113;41.822;23.564;2023-12-20T09:00:12;96.90;;;42.77;;
10144;SDS011;5113;41.822;23.564;2023-12-20T09:03:20;111.20;;;49.47;;
10144;SDS011;5113;41.822;23.564;2023-12-20T09:06:26;171.93;;;89.90;;
10144;SDS011;5113;41.822;23.564;2023-12-20T09:09:35;87.83;;;43.30;;
10144;SDS011;5113;41.822;23.564;2023-12-20T09:12:42;75.33;;;37.93;;
10144;SDS011;5113;41.822;23.564;2023-12-20T09:15:49;70.63;;;33.17;;
10144;SDS011;5113;41.822;23.564;2023-12-20T09:18:56;59.60;;;28.97;;
10144;SDS011;5113;41.822;23.564;2023-12-20T09:22:03;63.83;;;29.60;;
10144;SDS011;5113;41.822;23.564;2023-12-20T09:25:12;58.03;;;28.60;;
10144;SDS011;5113;41.822;23.564;2023-12-20T09:28:20;64.40;;;31.33;;
10144;SDS011;5113;41.822;23.564;2023-12-20T09:31:27;42.50;;;22.27;;
10144;SDS011;5113;41.822;23.564;2023-12-20T09:34:34;43.73;;;23.77;;
10144;SDS011;5113;41.822;23.564;2023-12-20T09:37:42;54.40;;;27.67;;
10144;SDS011;5113;41.822;23.564;2023-12-20T09:40:51;46.27;;;26.07;;
10144;SDS011;5113;41.822;23.564;2023-12-20T09:43:59;46.03;;;25.37;;
10144;SDS011;5113;41.822;23.564;2023-12-20T09:47:08;52.77;;;28.20;;
10144;SDS011;5113;41.822;23.564;2023-12-20T09:50:15;48.10;;;26.03;;
10144;SDS011;5113;41.822;23.564;2023-12-20T09:53:23;52.57;;;26.03;;
10144;SDS011;5113;41.822;23.564;2023-12-20T09:56:35;67.33;;;33.63;;
10144;SDS011;5113;41.822;23.564;2023-12-20T09:59:43;56.87;;;33.67;;
10144;SDS011;5113;41.822;23.564;2023-12-20T10:02:50;52.57;;;30.03;;
10144;SDS011;5113;41.822;23.564;2023-12-20T10:06:03;71.53;;;34.73;;
10144;SDS011;5113;41.822;23.564;2023-12-20T10:09:11;70.53;;;37.53;;
10144;SDS011;5113;41.822;23.564;2023-12-20T10:12:20;80.33;;;42.60;;
10144;SDS011;5113;41.822;23.564;2023-12-20T10:15:27;94.07;;;45.07;;
10144;SDS011;5113;41.822;23.564;2023-12-20T10:18:34;72.47;;;36.90;;
10144;SDS011;5113;41.822;23.564;2023-12-20T10:21:43;71.17;;;39.03;;
10144;SDS011;5113;41.822;23.564;2023-12-20T10:24:51;78.00;;;42.50;;
10144;SDS011;5113;41.822;23.564;2023-12-20T10:28:10;82.83;;;43.57;;
10144;SDS011;5113;41.822;23.564;2023-12-20T10:31:28;84.73;;;42.63;;
10144;SDS011;5113;41.822;23.564;2023-12-20T10:34:36;119.40;;;56.33;;
10144;SDS011;5113;41.822;23.564;2023-12-20T10:37:42;149.87;;;66.50;;
10144;SDS011;5113;41.822;23.564;2023-12-20T10:40:51;159.73;;;68.17;;
10144;SDS011;5113;41.822;23.564;2023-12-20T10:44:02;124.27;;;56.47;;
10144;SDS011;5113;41.822;23.564;2023-12-20T10:47:10;84.93;;;45.80;;
10144;SDS011;5113;41.822;23.564;2023-12-20T10:50:19;143.43;;;70.43;;
10144;SDS011;5113;41.822;23.564;2023-12-20T10:53:27;130.87;;;63.83;;
10144;SDS011;5113;41.822;23.564;2023-12-20T10:56:33;96.27;;;48.53;;
10144;SDS011;5113;41.822;23.564;2023-12-20T10:59:43;97.40;;;53.03;;
10144;SDS011;5113;41.822;23.564;2023-12-20T11:02:54;129.67;;;59.13;;
10144;SDS011;5113;41.822;23.564;2023-12-20T11:06:09;136.87;;;66.13;;
10144;SDS011;5113;41.822;23.564;2023-12-20T11:09:26;107.40;;;60.63;;
10144;SDS011;5113;41.822;23.564;2023-12-20T11:12:41;103.43;;;58.57;;
10144;SDS011;5113;41.822;23.564;2023-12-20T11:15:54;103.60;;;54.13;;
10144;SDS011;5113;41.822;23.564;2023-12-20T11:19:04;124.27;;;64.23;;
10144;SDS011;5113;41.822;23.564;2023-12-20T11:22:11;118.77;;;57.20;;
10144;SDS011;5113;41.822;23.564;2023-12-20T11:25:18;105.43;;;59.93;;
10144;SDS011;5113;41.822;23.564;2023-12-20T11:28:25;128.30;;;66.63;;
10144;SDS011;5113;41.822;23.564;2023-12-20T11:31:41;138.10;;;71.73;;
10144;SDS011;5113;41.822;23.564;2023-12-20T11:34:47;147.83;;;72.67;;
10144;SDS011;5113;41.822;23.564;2023-12-20T11:37:54;134.53;;;80.20;;
10144;SDS011;5113;41.822;23.564;2023-12-20T11:41:05;75.73;;;44.27;;
10144;SDS011;5113;41.822;23.564;2023-12-20T11:44:14;60.63;;;35.33;;
10144;SDS011;5113;41.822;23.564;2023-12-20T11:47:25;65.50;;;36.87;;
10144;SDS011;5113;41.822;23.564;2023-12-20T11:50:32;74.40;;;41.70;;
10144;SDS011;5113;41.822;23.564;2023-12-20T11:53:39;67.67;;;39.43;;
10144;SDS011;5113;41.822;23.564;2023-12-20T11:56:47;80.87;;;42.63;;
10144;SDS011;5113;41.822;23.564;2023-12-20T11:59:54;94.50;;;49.13;;
10144;SDS011;5113;41.822;23.564;2023-12-20T12:03:02;124.97;;;64.87;;
10144;SDS011;5113;41.822;23.564;2023-12-20T12:06:09;128.17;;;68.03;;
10144;SDS011;5113;41.822;23.564;2023-12-20T12:09:17;133.53;;;70.03;;
10144;SDS011;5113;41.822;23.564;2023-12-20T12:12:24;137.80;;;71.27;;
10144;SDS011;5113;41.822;23.564;2023-12-20T12:15:32;247.13;;;110.47;;
10144;SDS011;5113;41.822;23.564;2023-12-20T12:18:40;129.77;;;67.00;;
10144;SDS011;5113;41.822;23.564;2023-12-20T12:21:48;136.90;;;68.20;;
10144;SDS011;5113;41.822;23.564;2023-12-20T12:24:54;78.47;;;45.00;;
10144;SDS011;5113;41.822;23.564;2023-12-20T12:28:06;119.47;;;63.43;;
10144;SDS011;5113;41.822;23.564;2023-12-20T12:31:13;140.77;;;72.47;;
10144;SDS011;5113;41.822;23.564;2023-12-20T12:34:23;108.33;;;59.73;;
10144;SDS011;5113;41.822;23.564;2023-12-20T12:37:31;54.43;;;30.13;;
10144;SDS011;5113;41.822;23.564;2023-12-20T12:40:41;47.67;;;27.20;;
10144;SDS011;5113;41.822;23.564;2023-12-20T12:43:50;44.60;;;22.47;;
10144;SDS011;5113;41.822;23.564;2023-12-20T12:46:57;36.23;;;19.17;;
10144;SDS011;5113;41.822;23.564;2023-12-20T12:50:06;45.47;;;26.30;;
10144;SDS011;5113;41.822;23.564;2023-12-20T12:53:13;50.83;;;26.10;;
10144;SDS011;5113;41.822;23.564;2023-12-20T12:56:20;79.57;;;37.13;;
10144;SDS011;5113;41.822;23.564;2023-12-20T12:59:28;42.73;;;25.83;;
10144;SDS011;5113;41.822;23.564;2023-12-20T13:02:34;75.43;;;41.77;;
10144;SDS011;5113;41.822;23.564;2023-12-20T13:05:44;67.17;;;38.17;;
10144;SDS011;5113;41.822;23.564;2023-12-20T13:08:52;62.50;;;32.43;;
10144;SDS011;5113;41.822;23.564;2023-12-20T13:12:00;71.37;;;36.23;;
10144;SDS011;5113;41.822;23.564;2023-12-20T13:15:08;102.17;;;44.93;;
10144;SDS011;5113;41.822;23.564;2023-12-20T13:18:15;74.47;;;35.43;;
10144;SDS011;5113;41.822;23.564;2023-12-20T13:21:23;80.60;;;42.33;;
10144;SDS011;5113;41.822;23.564;2023-12-20T13:24:30;86.70;;;46.50;;
10144;SDS011;5113;41.822;23.564;2023-12-20T13:27:37;96.70;;;47.43;;
10144;SDS011;5113;41.822;23.564;2023-12-20T13:30:44;88.93;;;45.60;;
10144;SDS011;5113;41.822;23.564;2023-12-20T13:33:51;109.77;;;56.03;;
10144;SDS011;5113;41.822;23.564;2023-12-20T13:37:00;136.00;;;68.20;;
10144;SDS011;5113;41.822;23.564;2023-12-20T13:40:07;105.40;;;53.27;;
10144;SDS011;5113;41.822;23.564;2023-12-20T13:43:14;91.67;;;45.70;;
10144;SDS011;5113;41.822;23.564;2023-12-20T13:46:25;81.97;;;42.47;;
10144;SDS011;5113;41.822;23.564;2023-12-20T13:49:32;69.60;;;36.37;;
10144;SDS011;5113;41.822;23.564;2023-12-20T13:52:41;78.67;;;39.30;;
10144;SDS011;5113;41.822;23.564;2023-12-20T13:55:48;89.10;;;43.83;;
10144;SDS011;5113;41.822;23.564;2023-12-20T13:58:54;83.03;;;40.10;;
10144;SDS011;5113;41.822;23.564;2023-12-20T14:02:02;73.20;;;34.20;;
10144;SDS011;5113;41.822;23.564;2023-12-20T14:05:09;62.80;;;32.30;;
10144;SDS011;5113;41.822;23.564;2023-12-20T14:08:17;60.07;;;31.37;;
10144;SDS011;5113;41.822;23.564;2023-12-20T14:11:24;61.93;;;34.13;;
10144;SDS011;5113;41.822;23.564;2023-12-20T14:14:31;58.73;;;31.53;;
10144;SDS011;5113;41.822;23.564;2023-12-20T14:17:38;85.33;;;43.70;;
10144;SDS011;5113;41.822;23.564;2023-12-20T14:20:45;63.60;;;34.27;;
10144;SDS011;5113;41.822;23.564;2023-12-20T14:23:53;77.17;;;42.37;;
10144;SDS011;5113;41.822;23.564;2023-12-20T14:26:59;80.83;;;43.23;;
10144;SDS011;5113;41.822;23.564;2023-12-20T14:30:06;77.93;;;40.97;;
10144;SDS011;5113;41.822;23.564;2023-12-20T14:33:13;77.00;;;40.87;;
10144;SDS011;5113;41.822;23.564;2023-12-20T14:36:20;74.20;;;40.53;;
10144;SDS011;5113;41.822;23.564;2023-12-20T14:39:29;63.57;;;35.27;;
10144;SDS011;5113;41.822;23.564;2023-12-20T14:42:36;66.00;;;35.97;;
10144;SDS011;5113;41.822;23.564;2023-12-20T14:45:43;76.60;;;38.03;;
10144;SDS011;5113;41.822;23.564;2023-12-20T14:48:50;68.33;;;37.63;;
10144;SDS011;5113;41.822;23.564;2023-12-20T14:51:57;69.67;;;37.93;;
10144;SDS011;5113;41.822;23.564;2023-12-20T14:55:06;57.23;;;32.03;;
10144;SDS011;5113;41.822;23.564;2023-12-20T14:58:13;63.93;;;35.60;;
10144;SDS011;5113;41.822;23.564;2023-12-20T15:01:21;58.40;;;33.93;;
10144;SDS011;5113;41.822;23.564;2023-12-20T15:04:28;46.17;;;27.97;;
10144;SDS011;5113;41.822;23.564;2023-12-20T15:07:35;60.37;;;32.00;;
10144;SDS011;5113;41.822;23.564;2023-12-20T15:10:44;56.00;;;30.87;;
10144;SDS011;5113;41.822;23.564;2023-12-20T15:13:51;58.40;;;31.53;;
10144;SDS011;5113;41.822;23.564;2023-12-20T15:17:00;63.53;;;33.30;;
10144;SDS011;5113;41.822;23.564;2023-12-20T15:20:07;58.27;;;33.03;;
10144;SDS011;5113;41.822;23.564;2023-12-20T15:23:16;107.53;;;52.33;;
10144;SDS011;5113;41.822;23.564;2023-12-20T15:26:25;115.63;;;52.90;;
10144;SDS011;5113;41.822;23.564;2023-12-20T15:29:36;149.63;;;69.53;;
10144;SDS011;5113;41.822;23.564;2023-12-20T15:32:43;118.93;;;54.83;;
10144;SDS011;5113;41.822;23.564;2023-12-20T15:35:50;104.00;;;50.07;;
10144;SDS011;5113;41.822;23.564;2023-12-20T15:38:57;114.57;;;56.40;;
10144;SDS011;5113;41.822;23.564;2023-12-20T15:42:05;180.17;;;75.63;;
10144;SDS011;5113;41.822;23.564;2023-12-20T15:45:12;139.73;;;64.03;;
10144;SDS011;5113;41.822;23.564;2023-12-20T15:48:18;241.17;;;85.77;;
10144;SDS011;5113;41.822;23.564;2023-12-20T15:51:25;161.40;;;66.33;;
10144;SDS011;5113;41.822;23.564;2023-12-20T15:54:32;136.07;;;52.90;;
10144;SDS011;5113;41.822;23.564;2023-12-20T15:57:40;108.23;;;49.33;;
10144;SDS011;5113;41.822;23.564;2023-12-20T16:00:58;144.27;;;60.37;;
10144;SDS011;5113;41.822;23.564;2023-12-20T16:04:06;233.60;;;100.13;;
10144;SDS011;5113;41.822;23.564;2023-12-20T16:07:13;172.17;;;74.17;;
10144;SDS011;5113;41.822;23.564;2023-12-20T16:10:21;152.93;;;68.10;;
10144;SDS011;5113;41.822;23.564;2023-12-20T16:13:29;180.17;;;77.17;;
10144;SDS011;5113;41.822;23.564;2023-12-20T16:16:36;190.43;;;87.40;;
10144;SDS011;5113;41.822;23.564;2023-12-20T16:19:43;158.63;;;72.80;;
10144;SDS011;5113;41.822;23.564;2023-12-20T16:22:50;152.63;;;72.50;;
10144;SDS011;5113;41.822;23.564;2023-12-20T16:25:57;148.87;;;66.97;;
10144;SDS011;5113;41.822;23.564;2023-12-20T16:29:05;137.50;;;63.40;;
10144;SDS011;5113;41.822;23.564;2023-12-20T16:32:12;171.87;;;79.67;;
10144;SDS011;5113;41.822;23.564;2023-12-20T16:35:19;199.37;;;90.47;;
10144;SDS011;5113;41.822;23.564;2023-12-20T16:38:26;186.03;;;92.40;;
10144;SDS011;5113;41.822;23.564;2023-12-20T16:41:33;180.53;;;88.67;;
10144;SDS011;5113;41.822;23.564;2023-12-20T16:44:40;188.23;;;87.47;;
10144;SDS011;5113;41.822;23.564;2023-12-20T16:47:47;218.23;;;107.37;;
10144;SDS011;5113;41.822;23.564;2023-12-20T16:50:53;216.73;;;110.53;;
10144;SDS011;5113;41.822;23.564;2023-12-20T16:54:00;134.40;;;57.10;;
10144;SDS011;5113;41.822;23.564;2023-12-20T16:57:07;103.17;;;46.63;;
10144;SDS011;5113;41.822;23.564;2023-12-20T17:00:16;159.70;;;72.17;;
10144;SDS011;5113;41.822;23.564;2023-12-20T17:03:24;175.97;;;74.37;;
10144;SDS011;5113;41.822;23.564;2023-12-20T17:06:31;250.30;;;103.10;;
10144;SDS011;5113;41.822;23.564;2023-12-20T17:09:38;121.47;;;57.13;;
10144;SDS011;5113;41.822;23.564;2023-12-20T17:12:45;148.70;;;68.00;;
10144;SDS011;5113;41.822;23.564;2023-12-20T17:15:53;147.43;;;67.87;;
10144;SDS011;5113;41.822;23.564;2023-12-20T17:19:00;321.47;;;122.93;;
10144;SDS011;5113;41.822;23.564;2023-12-20T17:22:07;356.07;;;155.57;;
10144;SDS011;5113;41.822;23.564;2023-12-20T17:25:14;451.93;;;197.97;;
10144;SDS011;5113;41.822;23.564;2023-12-20T17:28:21;426.90;;;186.30;;
10144;SDS011;5113;41.822;23.564;2023-12-20T17:31:30;213.80;;;90.87;;
10144;SDS011;5113;41.822;23.564;2023-12-20T17:34:37;95.27;;;41.13;;
10144;SDS011;5113;41.822;23.564;2023-12-20T17:37:43;122.43;;;42.63;;
10144;SDS011;5113;41.822;23.564;2023-12-20T17:40:50;162.23;;;57.43;;
10144;SDS011;5113;41.822;23.564;2023-12-20T17:43:57;225.67;;;73.63;;
10144;SDS011;5113;41.822;23.564;2023-12-20T17:47:05;199.87;;;80.47;;
10144;SDS011;5113;41.822;23.564;2023-12-20T17:50:13;338.37;;;142.20;;
10144;SDS011;5113;41.822;23.564;2023-12-20T17:53:20;407.93;;;170.70;;
10144;SDS011;5113;41.822;23.564;2023-12-20T17:56:27;441.33;;;185.43;;
10144;SDS011;5113;41.822;23.564;2023-12-20T17:59:34;455.47;;;188.63;;
10144;SDS011;5113;41.822;23.564;2023-12-20T18:02:44;842.07;;;353.20;;
10144;SDS011;5113;41.822;23.564;2023-12-20T18:05:52;783.70;;;340.23;;
10144;SDS011;5113;41.822;23.564;2023-12-20T18:08:58;424.43;;;172.23;;
10144;SDS011;5113;41.822;23.564;2023-12-20T18:12:05;417.87;;;162.37;;
10144;SDS011;5113;41.822;23.564;2023-12-20T18:15:13;419.50;;;172.60;;